Time;durP1;ratioP1;P1;durP2;ratioP2;P2;SDS_P1;SDS_P2;PMS_P1;PMS_P2;Temp;Humidity;BMP_temperature;BMP_pressure;BME280_temperature;BME280_humidity;BME280_pressure;Samples;Min_cycle;Max_cycle;Signal;HPM_P1;HPM_P2
2023/09/15 00:00:17;;;;;;;6.07;4.40;;;;;;;15.37;94.95;98404.31;5087685;23;20635;-86
2023/09/15 00:02:20;;;;;;;6.30;4.47;;;;;;;15.37;94.92;98404.31;5062704;23;20585;-86
2023/09/15 00:04:23;;;;;;;4.97;4.27;;;;;;;15.39;94.77;98406.81;5115123;23;21023;-86
2023/09/15 00:06:26;;;;;;;5.50;4.13;;;;;;;15.41;95.92;98412.78;5088154;23;20592;-86
2023/09/15 00:08:29;;;;;;;6.10;4.43;;;;;;;15.41;96.32;98407.53;5087266;23;20593;-85
2023/09/15 00:10:33;;;;;;;5.00;4.20;;;;;;;15.40;95.63;98409.34;5087625;23;20573;-85
2023/09/15 00:12:37;;;;;;;6.93;4.37;;;;;;;15.30;94.33;98404.94;5086874;23;20673;-85
2023/09/15 00:14:40;;;;;;;5.77;4.37;;;;;;;15.20;94.17;98404.88;5114874;23;21194;-85
2023/09/15 00:16:45;;;;;;;5.77;4.90;;;;;;;15.15;95.62;98406.16;5087063;23;20575;-85
2023/09/15 00:18:50;;;;;;;4.77;4.00;;;;;;;15.12;93.83;98412.53;5088564;23;20658;-85
2023/09/15 00:20:53;;;;;;;5.47;4.07;;;;;;;15.07;95.29;98409.41;5088359;23;20594;-85
2023/09/15 00:22:56;;;;;;;10.20;4.77;;;;;;;15.09;95.63;98407.53;5064657;23;20575;-85
2023/09/15 00:24:59;;;;;;;6.00;4.30;;;;;;;15.08;95.71;98423.41;5115110;23;21177;-85
2023/09/15 00:27:02;;;;;;;5.40;3.90;;;;;;;15.10;95.56;98408.34;5063909;23;20658;-86
2023/09/15 00:29:05;;;;;;;5.97;4.50;;;;;;;15.11;95.74;98415.28;5087482;23;20613;-86
2023/09/15 00:31:10;;;;;;;6.57;4.43;;;;;;;15.12;95.94;98412.53;5087816;23;20577;-85
2023/09/15 00:33:15;;;;;;;7.03;4.30;;;;;;;15.12;97.16;98406.41;5114948;23;20708;-86
2023/09/15 00:35:19;;;;;;;5.60;4.70;;;;;;;15.13;96.50;98405.47;5089022;23;20660;-86
2023/09/15 00:37:22;;;;;;;5.60;4.43;;;;;;;15.11;95.83;98410.84;5088075;23;20571;-86
2023/09/15 00:39:25;;;;;;;4.80;3.87;;;;;;;15.05;94.73;98414.91;5088993;23;20868;-85
2023/09/15 00:41:28;;;;;;;7.20;4.50;;;;;;;14.94;94.14;98407.09;5114829;23;20644;-86
2023/09/15 00:43:31;;;;;;;5.07;4.40;;;;;;;14.87;95.06;98408.53;5114799;23;20577;-85
2023/09/15 00:45:34;;;;;;;6.00;4.73;;;;;;;14.82;95.85;98401.00;5089119;23;20605;-86
2023/09/15 00:47:38;;;;;;;7.10;4.80;;;;;;;14.85;96.02;98406.00;5114670;23;20597;-85
2023/09/15 00:49:42;;;;;;;5.73;4.13;;;;;;;14.88;95.40;98402.31;5088804;23;20586;-86
2023/09/15 00:51:46;;;;;;;7.73;4.20;;;;;;;14.88;95.83;98403.16;5114093;23;20597;-85
2023/09/15 00:53:50;;;;;;;6.10;4.53;;;;;;;14.86;94.77;98404.25;5064081;23;20916;-85
2023/09/15 00:55:53;;;;;;;9.10;5.00;;;;;;;14.84;95.23;98401.75;5086512;23;21116;-86
2023/09/15 00:57:57;;;;;;;4.80;4.00;;;;;;;14.79;95.14;98401.28;5114688;23;20596;-89
2023/09/15 01:00:02;;;;;;;4.63;4.10;;;;;;;14.78;94.55;98396.16;5089215;23;21138;-88
2023/09/15 01:02:06;;;;;;;6.50;4.60;;;;;;;14.79;94.53;98403.06;5089003;23;20582;-88
2023/09/15 01:04:11;;;;;;;5.57;4.77;;;;;;;14.80;94.97;98395.06;5064473;23;20665;-88
2023/09/15 01:06:17;;;;;;;5.47;4.50;;;;;;;14.79;95.61;98393.41;5088784;23;20600;-88
2023/09/15 01:08:20;;;;;;;4.70;4.13;;;;;;;14.79;95.98;98397.81;5088247;23;20609;-86
2023/09/15 01:10:24;;;;;;;6.73;4.40;;;;;;;14.80;96.45;98395.06;5114392;23;20611;-86
2023/09/15 01:12:27;;;;;;;5.37;4.87;;;;;;;14.79;96.04;98393.41;5062406;23;21148;-86
2023/09/15 01:14:31;;;;;;;5.87;4.47;;;;;;;14.78;95.27;98388.28;5088445;23;20601;-86
2023/09/15 01:16:39;;;;;;;5.40;4.60;;;;;;;14.73;95.10;98396.53;5062646;23;20625;-85
2023/09/15 01:18:46;;;;;;;5.60;4.50;;;;;;;14.71;95.21;98398.41;5086329;23;20684;-86
2023/09/15 01:21:08;;;;;;;4.50;3.90;;;;;;;14.68;96.01;98395.22;5088083;23;20616;-86
2023/09/15 01:23:31;;;;;;;5.63;4.17;;;;;;;14.69;95.29;98389.84;5088516;23;21120;-86
2023/09/15 01:25:52;;;;;;;6.40;4.37;;;;;;;14.71;95.63;98382.66;5064503;23;20586;-86
2023/09/15 01:28:19;;;;;;;5.37;3.60;;;;;;;14.70;94.97;98388.03;5064239;23;20603;-85
2023/09/15 01:30:25;;;;;;;9.47;4.50;;;;;;;14.65;95.20;98387.56;5087059;23;20677;-86
2023/09/15 01:32:29;;;;;;;6.10;4.87;;;;;;;14.65;95.29;98383.16;5063457;23;20954;-86
2023/09/15 01:34:33;;;;;;;6.20;4.20;;;;;;;14.65;96.28;98377.91;5088436;23;20870;-86
2023/09/15 01:36:36;;;;;;;4.23;3.83;;;;;;;14.63;95.47;98379.81;5064341;23;20578;-86
2023/09/15 01:38:39;;;;;;;4.97;4.20;;;;;;;14.60;96.51;98380.06;5063934;23;20695;-87
2023/09/15 01:40:41;;;;;;;5.80;3.97;;;;;;;14.59;96.50;98373.13;5063960;23;20614;-86
2023/09/15 01:42:44;;;;;;;5.10;4.30;;;;;;;14.59;95.71;98380.19;5064160;23;20586;-86
2023/09/15 01:44:48;;;;;;;5.80;4.90;;;;;;;14.59;95.22;98384.63;5064156;23;20593;-86
2023/09/15 01:46:53;;;;;;;6.50;4.00;;;;;;;14.51;94.71;98394.88;5062279;23;20600;-86
2023/09/15 01:48:58;;;;;;;5.97;3.93;;;;;;;14.44;94.46;98396.31;5063496;23;20627;-86
2023/09/15 01:51:02;;;;;;;6.70;4.47;;;;;;;14.41;95.01;98396.56;5063284;23;21140;-86
2023/09/15 01:53:06;;;;;;;6.77;4.03;;;;;;;14.37;94.86;98393.34;5088141;23;20638;-86
2023/09/15 01:55:13;;;;;;;5.93;4.60;;;;;;;14.33;95.25;98391.91;5064016;23;21100;-86
2023/09/15 01:57:16;;;;;;;7.60;4.37;;;;;;;14.32;94.78;98392.84;5063681;23;20585;-86
2023/09/15 01:59:19;;;;;;;6.00;4.20;;;;;;;14.32;95.50;98392.03;5087251;23;20585;-86
2023/09/15 02:01:28;;;;;;;6.23;4.80;;;;;;;14.30;94.50;98392.16;5086888;23;20590;-86
2023/09/15 02:03:34;;;;;;;5.07;4.57;;;;;;;14.31;96.12;98390.34;5112552;23;20897;-86
2023/09/15 02:05:37;;;;;;;6.10;4.53;;;;;;;14.30;96.21;98393.97;5086496;23;20609;-85
2023/09/15 02:07:40;;;;;;;5.57;4.43;;;;;;;14.29;96.29;98387.03;5063972;23;20613;-86
2023/09/15 02:09:44;;;;;;;5.53;4.10;;;;;;;14.28;96.06;98380.09;5062642;23;20590;-85
2023/09/15 02:11:47;;;;;;;5.87;5.13;;;;;;;14.26;95.52;98388.09;5063533;23;20630;-85
2023/09/15 02:13:51;;;;;;;7.57;4.10;;;;;;;14.27;95.79;98388.94;5088352;23;20655;-85
2023/09/15 02:15:54;;;;;;;6.93;4.60;;;;;;;14.26;96.18;98387.25;5088786;23;20581;-86
2023/09/15 02:17:59;;;;;;;9.70;4.30;;;;;;;14.27;95.50;98391.56;5087419;23;20561;-85
2023/09/15 02:20:12;;;;;;;6.97;4.90;;;;;;;14.32;96.02;98392.03;5113561;23;20548;-88
2023/09/15 02:22:16;;;;;;;5.20;4.30;;;;;;;14.33;95.87;98385.84;5113815;23;20650;-87
2023/09/15 02:24:19;;;;;;;6.40;3.93;;;;;;;14.34;96.14;98390.13;5064808;23;20587;-88
2023/09/15 02:26:22;;;;;;;6.73;4.50;;;;;;;14.32;96.42;98386.78;5088728;23;20562;-88
2023/09/15 02:28:26;;;;;;;7.20;5.27;;;;;;;14.34;95.80;98387.50;5064560;23;20607;-88
2023/09/15 02:30:29;;;;;;;6.47;4.80;;;;;;;14.31;96.28;98383.34;5088757;23;20640;-89
2023/09/15 02:32:32;;;;;;;7.47;4.10;;;;;;;14.32;96.48;98377.13;5063664;23;20674;-88
2023/09/15 02:34:35;;;;;;;5.30;4.40;;;;;;;14.34;96.93;98384.88;5114684;23;21212;-88
2023/09/15 02:36:40;;;;;;;9.37;4.77;;;;;;;14.33;95.72;98385.84;5064105;23;21087;-88
2023/09/15 02:38:43;;;;;;;9.03;5.17;;;;;;;14.33;96.18;98383.22;5115226;23;20561;-88
2023/09/15 02:40:47;;;;;;;6.83;4.97;;;;;;;14.27;96.45;98381.06;5062781;23;20587;-88
2023/09/15 02:42:50;;;;;;;7.10;4.90;;;;;;;14.21;95.87;98379.75;5088555;23;20569;-88
2023/09/15 02:44:53;;;;;;;7.80;4.60;;;;;;;14.21;96.14;98384.19;5088457;23;20585;-88
2023/09/15 02:46:56;;;;;;;6.07;4.20;;;;;;;14.17;96.71;98383.56;5114640;23;20634;-88
2023/09/15 02:49:01;;;;;;;5.30;4.30;;;;;;;14.19;96.92;98389.53;5087368;23;20662;-89
2023/09/15 02:51:05;;;;;;;6.27;4.63;;;;;;;14.17;96.44;98388.81;5089791;23;20581;-88
2023/09/15 02:53:10;;;;;;;6.20;4.67;;;;;;;14.16;96.76;98386.31;5089934;23;20563;-88
2023/09/15 02:55:13;;;;;;;5.60;4.77;;;;;;;14.18;96.63;98384.41;5116170;23;20563;-88
2023/09/15 02:57:16;;;;;;;9.70;4.90;;;;;;;14.17;96.98;98377.50;5065938;23;21182;-88
2023/09/15 02:59:19;;;;;;;8.47;5.27;;;;;;;14.14;96.26;98383.78;5064930;23;20577;-88
2023/09/15 03:01:22;;;;;;;8.10;4.40;;;;;;;14.15;96.29;98382.03;5065731;23;20585;-87
2023/09/15 03:03:26;;;;;;;5.90;4.73;;;;;;;14.13;96.18;98378.66;5064994;23;20584;-88
2023/09/15 03:05:29;;;;;;;6.43;4.87;;;;;;;14.15;96.59;98384.66;5065182;23;20613;-88
2023/09/15 03:07:32;;;;;;;10.60;5.07;;;;;;;14.16;96.29;98383.69;5090907;23;20572;-88
2023/09/15 03:09:37;;;;;;;6.47;5.00;;;;;;;14.16;96.06;98381.06;5089925;23;20567;-87
2023/09/15 03:11:40;;;;;;;6.87;5.07;;;;;;;14.13;96.77;98373.41;5089719;23;20625;-88
2023/09/15 03:13:44;;;;;;;6.53;4.67;;;;;;;14.12;96.23;98379.66;5090132;23;21011;-88
2023/09/15 03:15:48;;;;;;;5.27;4.70;;;;;;;14.11;97.01;98379.75;5064500;23;20591;-88
2023/09/15 03:17:51;;;;;;;7.50;5.17;;;;;;;14.13;96.92;98376.91;5089000;23;21135;-88
2023/09/15 03:19:55;;;;;;;7.80;5.53;;;;;;;14.13;96.70;98376.03;5089711;23;21032;-88
2023/09/15 03:21:58;;;;;;;6.73;5.13;;;;;;;14.17;97.14;98382.72;5089511;23;20584;-88
2023/09/15 03:24:01;;;;;;;6.33;4.80;;;;;;;14.19;96.99;98372.94;5090192;23;20597;-88
2023/09/15 03:26:07;;;;;;;7.27;5.53;;;;;;;14.18;96.57;98381.78;5089514;23;20567;-88
2023/09/15 03:28:11;;;;;;;6.70;5.30;;;;;;;14.16;96.74;98379.28;5090078;23;20597;-88
2023/09/15 03:30:15;;;;;;;6.70;4.93;;;;;;;14.14;96.39;98372.47;5064669;23;20616;-88
2023/09/15 03:32:19;;;;;;;7.33;5.30;;;;;;;14.08;95.96;98372.94;5064308;23;20598;-88
2023/09/15 03:34:22;;;;;;;7.10;5.07;;;;;;;13.99;95.13;98368.38;5090703;23;20585;-88
2023/09/15 03:36:28;;;;;;;6.47;4.73;;;;;;;13.90;95.04;98374.34;5067475;23;20620;-88
2023/09/15 03:38:30;;;;;;;7.40;5.13;;;;;;;13.88;95.11;98371.00;5066916;23;20577;-88
2023/09/15 03:40:33;;;;;;;7.70;5.50;;;;;;;13.91;95.70;98380.44;5066819;23;20610;-87
2023/09/15 03:42:39;;;;;;;5.97;5.13;;;;;;;13.93;96.34;98376.72;5090285;23;20653;-88
2023/09/15 03:44:42;;;;;;;6.87;5.40;;;;;;;13.91;96.22;98376.03;5066479;23;21252;-88
2023/09/15 03:46:45;;;;;;;6.67;5.13;;;;;;;13.91;96.78;98372.56;5114696;23;20978;-88
2023/09/15 03:48:49;;;;;;;6.50;5.50;;;;;;;13.88;96.40;98378.88;5089807;23;20615;-88
2023/09/15 03:50:55;;;;;;;8.77;6.00;;;;;;;13.88;96.27;98376.25;5063866;23;20677;-88
2023/09/15 03:52:57;;;;;;;7.53;5.93;;;;;;;13.91;97.21;98386.50;5065888;23;20672;-88
2023/09/15 03:55:02;;;;;;;10.07;5.67;;;;;;;13.93;97.25;98374.09;5066095;23;21202;-87
2023/09/15 03:57:06;;;;;;;7.50;5.67;;;;;;;13.93;96.84;98376.72;5065857;23;20584;-88
2023/09/15 03:59:11;;;;;;;8.37;5.20;;;;;;;13.94;96.49;98382.81;5089284;23;20640;-87
2023/09/15 04:01:19;;;;;;;8.53;6.07;;;;;;;13.90;97.16;98379.59;5088590;23;20578;-88
2023/09/15 04:03:23;;;;;;;12.10;6.07;;;;;;;13.88;96.64;98376.25;5089271;23;20667;-87
2023/09/15 04:05:26;;;;;;;8.50;6.10;;;;;;;13.90;97.27;98376.13;5089664;23;20588;-88
2023/09/15 04:07:29;;;;;;;8.33;6.07;;;;;;;13.91;96.68;98375.19;5087722;23;20560;-88
2023/09/15 04:09:34;;;;;;;8.97;5.67;;;;;;;13.90;97.03;98384.00;5114754;23;21178;-88
2023/09/15 04:11:38;;;;;;;10.33;5.73;;;;;;;13.89;97.95;98384.94;5064699;23;20628;-88
2023/09/15 04:13:41;;;;;;;9.80;6.10;;;;;;;13.90;97.06;98376.13;5114770;23;20622;-87
2023/09/15 04:15:46;;;;;;;9.47;7.03;;;;;;;13.90;97.00;98384.84;5089497;23;20671;-89
2023/09/15 04:17:48;;;;;;;8.57;6.30;;;;;;;13.88;97.35;98386.75;5086650;23;20585;-88
2023/09/15 04:19:52;;;;;;;9.40;6.27;;;;;;;13.86;96.22;98380.78;5086865;23;21157;-88
2023/09/15 04:21:55;;;;;;;9.40;6.30;;;;;;;13.82;97.17;98373.28;5087761;23;20860;-88
2023/09/15 04:23:58;;;;;;;8.80;6.43;;;;;;;13.81;96.92;98369.81;5064913;23;20566;-88
2023/09/15 04:26:01;;;;;;;7.73;5.93;;;;;;;13.78;97.06;98372.66;5089136;23;20658;-88
2023/09/15 04:28:04;;;;;;;9.50;6.77;;;;;;;13.79;96.88;98373.50;5087792;23;20573;-87
2023/09/15 04:30:08;;;;;;;8.20;6.30;;;;;;;13.78;97.10;98362.16;5088588;23;20607;-88
2023/09/15 04:32:18;;;;;;;9.10;6.40;;;;;;;13.78;96.43;98364.78;5088771;23;20921;-88
2023/09/15 04:34:22;;;;;;;7.67;6.17;;;;;;;13.78;97.07;98363.97;5064813;23;20580;-87
2023/09/15 04:36:25;;;;;;;7.50;5.77;;;;;;;13.77;97.44;98363.16;5116160;23;20602;-89
2023/09/15 04:38:30;;;;;;;11.73;7.20;;;;;;;13.77;97.42;98360.53;5089834;23;20599;-85
2023/09/15 04:40:33;;;;;;;7.30;5.70;;;;;;;13.77;96.99;98362.28;5088823;23;20969;-88
2023/09/15 04:42:40;;;;;;;8.13;6.17;;;;;;;13.77;97.01;98360.53;5065122;23;20663;-88
2023/09/15 04:44:44;;;;;;;19.10;12.03;;;;;;;13.77;96.90;98355.28;5088779;23;20616;-89
2023/09/15 04:46:47;;;;;;;16.50;9.67;;;;;;;13.78;96.92;98359.56;5064163;23;20618;-88
2023/09/15 04:48:51;;;;;;;10.70;7.97;;;;;;;13.76;96.83;98360.63;5086687;23;20643;-89
2023/09/15 04:50:54;;;;;;;9.50;7.30;;;;;;;13.73;96.72;98361.69;5063181;23;20577;-90
2023/09/15 04:53:02;;;;;;;11.83;7.00;;;;;;;13.70;97.02;98359.31;5087790;23;20580;-90
2023/09/15 04:55:06;;;;;;;8.37;6.33;;;;;;;13.70;97.00;98363.72;5088971;23;20667;-89
2023/09/15 04:57:11;;;;;;;9.37;6.67;;;;;;;13.69;97.16;98369.91;5089128;23;21184;-89
2023/09/15 04:59:16;;;;;;;11.23;6.67;;;;;;;13.69;97.22;98373.34;5087086;23;20584;-90
2023/09/15 05:01:19;;;;;;;9.13;6.53;;;;;;;13.70;97.44;98367.16;5064362;23;20676;-89
2023/09/15 05:03:23;;;;;;;8.17;6.13;;;;;;;13.70;97.22;98364.56;5089678;23;20560;-87
2023/09/15 05:05:28;;;;;;;9.80;6.73;;;;;;;13.70;97.47;98369.78;5112002;23;20678;-90
2023/09/15 05:07:32;;;;;;;8.83;6.30;;;;;;;13.71;97.64;98368.84;5064149;23;20636;-89
2023/09/15 05:09:35;;;;;;;10.00;7.50;;;;;;;13.72;97.64;98367.06;5111032;23;20615;-89
2023/09/15 05:11:37;;;;;;;11.83;6.87;;;;;;;13.69;97.60;98365.50;5064583;23;20636;-88
2023/09/15 05:13:41;;;;;;;10.80;6.47;;;;;;;13.68;96.79;98363.00;5064014;23;20588;-90
2023/09/15 05:15:44;;;;;;;8.03;6.37;;;;;;;13.65;96.05;98364.06;5064663;23;20786;-89
2023/09/15 05:17:47;;;;;;;9.13;6.67;;;;;;;13.70;96.69;98361.94;5089327;23;20668;-89
2023/09/15 05:19:55;;;;;;;12.07;6.10;;;;;;;13.76;95.91;98366.72;5088033;23;20576;-89
2023/09/15 05:22:00;;;;;;;10.10;5.97;;;;;;;13.77;95.34;98363.16;5064088;23;20581;-89
2023/09/15 05:24:03;;;;;;;7.73;6.00;;;;;;;13.81;94.87;98361.13;5089158;23;20593;-89
2023/09/15 05:26:08;;;;;;;9.73;5.83;;;;;;;13.86;94.59;98357.19;5088654;23;21184;-88
2023/09/15 05:28:11;;;;;;;7.93;5.83;;;;;;;13.93;95.02;98366.25;5064397;23;20589;-88
2023/09/15 05:30:15;;;;;;;11.47;6.17;;;;;;;14.01;95.59;98366.50;5062627;23;20909;-89
2023/09/15 05:32:19;;;;;;;9.33;6.60;;;;;;;14.11;95.56;98375.34;5089110;23;20600;-89
2023/09/15 05:34:22;;;;;;;13.50;6.27;;;;;;;14.21;94.24;98376.31;5065233;23;20676;-88
2023/09/15 05:36:25;;;;;;;9.70;5.77;;;;;;;14.34;95.55;98382.25;5088109;23;20652;-89
2023/09/15 05:38:30;;;;;;;11.57;6.67;;;;;;;14.47;95.11;98389.03;5059566;23;20587;-87
2023/09/15 05:40:34;;;;;;;8.20;6.53;;;;;;;14.59;95.73;98384.63;5061565;23;20580;-88
2023/09/15 05:42:40;;;;;;;10.43;7.47;;;;;;;14.74;95.70;98384.22;5088420;23;20577;-88
2023/09/15 05:44:43;;;;;;;12.70;6.50;;;;;;;14.90;94.45;98384.63;5089140;23;20917;-88
2023/09/15 05:46:47;;;;;;;8.10;6.17;;;;;;;15.04;95.89;98390.44;5065211;23;20652;-89
2023/09/15 05:48:50;;;;;;;8.97;6.50;;;;;;;15.17;95.00;98391.16;5090036;23;20588;-88
2023/09/15 05:50:53;;;;;;;10.13;6.90;;;;;;;15.28;94.29;98385.84;5064180;23;20613;-88
2023/09/15 05:52:57;;;;;;;9.30;7.67;;;;;;;15.43;95.33;98385.41;5115887;23;20559;-87
2023/09/15 05:55:01;;;;;;;9.00;6.70;;;;;;;15.56;95.20;98389.53;5089445;23;20774;-87
2023/09/15 05:57:05;;;;;;;10.97;8.20;;;;;;;15.69;94.26;98387.53;5088496;23;20685;-88
2023/09/15 05:59:08;;;;;;;9.57;7.00;;;;;;;15.84;92.95;98388.88;5113062;23;20584;-87
2023/09/15 06:01:11;;;;;;;8.93;7.80;;;;;;;15.98;94.37;98392.97;5085963;23;20601;-89
2023/09/15 06:03:15;;;;;;;9.17;7.20;;;;;;;16.11;92.08;98394.41;5087596;23;20901;-90
2023/09/15 06:05:20;;;;;;;10.60;7.93;;;;;;;16.24;92.10;98392.47;5089748;23;20679;-90
2023/09/15 06:07:22;;;;;;;9.67;7.17;;;;;;;16.38;90.38;98394.72;5089998;23;20594;-90
2023/09/15 06:09:25;;;;;;;9.23;7.47;;;;;;;16.49;91.22;98397.25;5089797;23;20593;-88
2023/09/15 06:11:30;;;;;;;9.33;7.20;;;;;;;16.57;90.64;98393.00;5085107;23;20617;-89
2023/09/15 06:13:34;;;;;;;9.03;7.83;;;;;;;16.69;88.83;98394.56;5064753;23;20579;-90
2023/09/15 06:15:40;;;;;;;10.97;7.17;;;;;;;16.81;89.07;98402.22;5065645;23;20621;-91
2023/09/15 06:17:43;;;;;;;11.27;7.37;;;;;;;16.96;89.95;98395.59;5065834;23;20607;-91
2023/09/15 06:19:46;;;;;;;9.17;7.30;;;;;;;17.09;89.10;98401.41;5089655;23;20712;-91
2023/09/15 06:21:49;;;;;;;10.07;7.30;;;;;;;17.25;88.95;98404.38;5089041;23;20620;-91
2023/09/15 06:23:55;;;;;;;8.20;6.90;;;;;;;17.35;89.67;98407.84;5115653;23;20582;-91
2023/09/15 06:25:58;;;;;;;9.40;7.53;;;;;;;17.48;88.50;98409.22;5115801;23;20674;-91
2023/09/15 06:28:03;;;;;;;10.53;6.90;;;;;;;17.61;88.96;98407.97;5113934;23;20628;-91
2023/09/15 06:30:21;;;;;;;7.90;7.10;;;;;;;17.74;88.53;98405.91;5112851;23;20632;-90
2023/09/15 06:32:24;;;;;;;8.73;7.50;;;;;;;17.85;87.46;98404.91;5087898;23;20578;-90
2023/09/15 06:34:27;;;;;;;9.50;7.27;;;;;;;17.98;88.47;98406.25;5090324;23;20896;-91
2023/09/15 06:36:31;;;;;;;8.73;6.53;;;;;;;18.12;89.05;98406.63;5064871;23;21166;-91
2023/09/15 06:38:34;;;;;;;8.30;7.10;;;;;;;18.26;87.14;98414.13;5086452;23;20586;-91
2023/09/15 06:40:37;;;;;;;7.83;6.73;;;;;;;18.41;88.39;98414.50;5089230;23;20590;-91
2023/09/15 06:42:40;;;;;;;10.80;7.20;;;;;;;18.52;87.64;98412.50;5064321;23;21180;-91
2023/09/15 06:44:45;;;;;;;8.10;6.53;;;;;;;18.67;88.53;98416.31;5089515;23;20593;-91
2023/09/15 06:46:48;;;;;;;9.53;7.23;;;;;;;18.78;86.30;98416.97;5089588;23;20590;-91
2023/09/15 06:48:51;;;;;;;7.90;6.80;;;;;;;18.89;85.07;98408.81;5087219;23;20575;-91
2023/09/15 06:50:55;;;;;;;9.13;7.30;;;;;;;19.02;85.96;98415.47;5087604;23;20669;-91
2023/09/15 06:52:58;;;;;;;8.80;6.83;;;;;;;19.09;85.17;98405.09;5064247;23;20584;-91
2023/09/15 06:55:01;;;;;;;7.67;6.87;;;;;;;19.24;85.91;98398.31;5114195;23;20927;-91
2023/09/15 06:57:05;;;;;;;8.97;7.00;;;;;;;19.37;86.04;98406.72;5109897;23;20905;-89
2023/09/15 06:59:08;;;;;;;9.57;7.10;;;;;;;19.52;85.98;98408.69;5113203;23;20559;-89
2023/09/15 07:01:13;;;;;;;9.30;7.30;;;;;;;19.69;87.39;98406.00;5062981;23;20908;-89
2023/09/15 07:03:16;;;;;;;9.60;7.50;;;;;;;19.77;84.06;98398.16;5088487;23;20584;-89
2023/09/15 07:05:19;;;;;;;9.53;6.70;;;;;;;19.83;83.44;98406.31;5088625;23;21246;-89
2023/09/15 07:07:23;;;;;;;8.50;7.10;;;;;;;19.94;82.73;98405.28;5110689;23;20592;-89
2023/09/15 07:09:26;;;;;;;9.30;7.33;;;;;;;20.10;84.97;98400.91;5063729;23;20582;-89
2023/09/15 07:11:29;;;;;;;9.50;7.27;;;;;;;20.22;82.97;98401.47;5114554;23;20656;-88
2023/09/15 07:13:33;;;;;;;7.43;6.63;;;;;;;20.31;82.90;98400.53;5114660;23;20930;-89
2023/09/15 07:15:36;;;;;;;9.07;6.83;;;;;;;20.41;82.35;98404.72;5112754;23;20627;-89
2023/09/15 07:17:42;;;;;;;9.73;6.90;;;;;;;20.54;80.75;98398.00;5112307;23;21183;-89
2023/09/15 07:19:46;;;;;;;10.50;6.87;;;;;;;20.61;82.49;98396.41;5064186;23;20602;-89
2023/09/15 07:21:49;;;;;;;9.73;6.63;;;;;;;20.74;80.34;98398.63;5063368;23;20583;-89
2023/09/15 07:23:53;;;;;;;8.90;7.00;;;;;;;20.78;81.32;98397.28;5088635;23;20554;-89
2023/09/15 07:25:56;;;;;;;8.03;7.00;;;;;;;20.97;84.17;98403.19;5087742;23;20629;-90
2023/09/15 07:28:00;;;;;;;8.40;6.67;;;;;;;21.12;81.59;98398.91;5088214;23;20608;-89
2023/09/15 07:30:03;;;;;;;9.97;7.10;;;;;;;21.25;81.08;98401.94;5114091;23;20627;-89
2023/09/15 07:32:07;;;;;;;8.77;6.50;;;;;;;21.39;81.18;98388.84;5113178;23;20605;-89
2023/09/15 07:34:12;;;;;;;15.20;7.30;;;;;;;21.50;80.20;98392.03;5063164;23;20580;-89
2023/09/15 07:36:15;;;;;;;8.33;6.90;;;;;;;21.72;82.69;98390.56;5088898;23;20559;-89
2023/09/15 07:38:18;;;;;;;7.70;6.87;;;;;;;21.84;79.04;98390.06;5089007;23;21314;-90
2023/09/15 07:40:23;;;;;;;9.10;7.20;;;;;;;21.84;78.89;98390.06;5063755;23;20601;-90
2023/09/15 07:42:27;;;;;;;7.97;7.17;;;;;;;21.92;78.98;98395.34;5113910;23;20557;-89
2023/09/15 07:44:30;;;;;;;7.93;6.43;;;;;;;22.02;78.92;98393.34;5087434;23;20606;-89
2023/09/15 07:46:34;;;;;;;10.10;6.57;;;;;;;22.19;80.60;98389.66;5090386;23;20620;-89
2023/09/15 07:48:37;;;;;;;11.00;6.23;;;;;;;22.40;79.59;98393.47;5090379;23;20883;-89
2023/09/15 07:50:41;;;;;;;10.43;6.97;;;;;;;22.53;79.41;98394.59;5089374;23;21043;-89
2023/09/15 07:52:46;;;;;;;9.67;6.30;;;;;;;22.71;77.99;98394.38;5088770;23;21067;-89
2023/09/15 07:54:49;;;;;;;7.80;7.00;;;;;;;22.82;77.56;98390.34;5115900;23;20565;-89
2023/09/15 07:56:53;;;;;;;7.63;6.33;;;;;;;22.95;77.35;98389.81;5065247;23;20620;-89
2023/09/15 07:58:56;;;;;;;7.60;6.50;;;;;;;23.06;79.00;98387.56;5090308;23;20666;-89
2023/09/15 08:01:00;;;;;;;8.00;6.40;;;;;;;23.17;79.60;98386.34;5088979;23;20583;-90
2023/09/15 08:03:04;;;;;;;7.23;6.53;;;;;;;23.29;78.49;98397.25;5089145;23;20575;-89
2023/09/15 08:05:08;;;;;;;7.33;6.13;;;;;;;23.35;77.71;98385.09;5115906;23;21029;-89
2023/09/15 08:07:13;;;;;;;6.80;6.03;;;;;;;23.44;77.17;98387.50;5089592;23;20578;-89
2023/09/15 08:09:17;;;;;;;7.93;6.47;;;;;;;23.54;76.65;98398.75;5089376;23;21064;-87
2023/09/15 08:11:20;;;;;;;6.77;5.90;;;;;;;23.55;76.89;98392.41;5089196;23;20611;-87
2023/09/15 08:13:23;;;;;;;14.93;6.27;;;;;;;23.65;80.70;98398.38;5065469;23;20632;-87
2023/09/15 08:15:27;;;;;;;15.93;6.20;;;;;;;23.76;77.87;98384.63;5089194;23;20608;-88
2023/09/15 08:17:30;;;;;;;7.60;6.80;;;;;;;23.86;77.44;98387.84;5089687;23;20916;-87
2023/09/15 08:19:36;;;;;;;7.93;6.77;;;;;;;23.99;77.26;98383.56;5090037;23;20566;-87
2023/09/15 08:21:39;;;;;;;7.57;6.77;;;;;;;24.12;77.86;98386.47;5114356;23;20591;-87
2023/09/15 08:23:44;;;;;;;8.07;5.90;;;;;;;24.20;78.77;98384.53;5065171;23;21141;-87
2023/09/15 08:25:48;;;;;;;9.10;7.03;;;;;;;24.24;78.15;98385.84;5089569;23;20625;-87
2023/09/15 08:27:52;;;;;;;7.83;6.47;;;;;;;24.26;79.03;98375.81;5065386;23;20641;-88
2023/09/15 08:29:55;;;;;;;7.43;6.73;;;;;;;24.24;76.66;98367.16;5064846;23;20584;-87
2023/09/15 08:31:58;;;;;;;7.00;5.67;;;;;;;24.28;77.78;98370.28;5115445;23;20612;-87
2023/09/15 08:34:01;;;;;;;7.37;6.23;;;;;;;24.18;75.58;98364.41;5089092;23;20624;-87
2023/09/15 08:36:05;;;;;;;7.57;6.33;;;;;;;24.18;76.75;98370.56;5089725;23;21124;-87
2023/09/15 08:38:09;;;;;;;6.97;6.20;;;;;;;24.33;75.94;98366.09;5089428;23;20591;-87
2023/09/15 08:40:15;;;;;;;6.73;6.03;;;;;;;24.40;75.62;98360.84;5088323;23;21099;-88
2023/09/15 08:42:21;;;;;;;7.10;6.40;;;;;;;24.40;74.20;98361.69;5115537;23;21117;-87
2023/09/15 08:44:25;;;;;;;7.70;6.57;;;;;;;24.33;75.12;98351.94;5089701;23;21161;-87
2023/09/15 08:46:31;;;;;;;7.90;6.10;;;;;;;24.29;75.76;98354.09;5065462;23;20589;-88
2023/09/15 08:48:39;;;;;;;7.47;6.17;;;;;;;24.40;75.33;98355.50;5065154;23;20640;-87
2023/09/15 08:50:43;;;;;;;7.87;6.40;;;;;;;24.42;74.48;98353.50;5088335;23;20623;-88
2023/09/15 08:52:46;;;;;;;8.67;6.60;;;;;;;24.32;74.15;98348.44;5088695;23;20622;-88
2023/09/15 08:54:51;;;;;;;6.50;5.63;;;;;;;24.38;74.44;98347.69;5064979;23;21159;-87
2023/09/15 08:56:55;;;;;;;7.57;5.90;;;;;;;24.46;76.23;98347.63;5064934;23;20587;-87
2023/09/15 08:58:59;;;;;;;7.07;6.37;;;;;;;24.62;76.01;98350.09;5065135;23;20888;-87
2023/09/15 09:01:07;;;;;;;9.10;6.20;;;;;;;24.79;77.30;98354.19;5115481;23;21146;-87
2023/09/15 09:03:12;;;;;;;6.70;5.90;;;;;;;24.93;77.21;98362.19;5115030;23;20556;-87
2023/09/15 09:05:16;;;;;;;6.90;6.20;;;;;;;25.06;76.24;98353.53;5089526;23;20617;-87
2023/09/15 09:07:21;;;;;;;7.60;6.10;;;;;;;25.17;75.40;98351.22;5063943;23;20748;-87
2023/09/15 09:09:24;;;;;;;8.30;7.37;;;;;;;25.23;74.89;98351.28;5089186;23;20633;-88
2023/09/15 09:11:28;;;;;;;8.77;7.60;;;;;;;25.36;76.44;98356.75;5086039;23;21354;-87
2023/09/15 09:13:32;;;;;;;8.33;6.97;;;;;;;25.49;74.01;98354.22;5086271;23;20637;-88
2023/09/15 09:15:51;;;;;;;10.17;9.07;;;;;;;25.47;75.08;98342.91;5064075;23;20591;-87
2023/09/15 09:17:55;;;;;;;13.43;9.30;;;;;;;25.55;75.78;98345.44;5063790;23;20595;-87
2023/09/15 09:19:58;;;;;;;7.80;7.00;;;;;;;25.62;75.83;98341.81;5064536;23;20653;-89
2023/09/15 09:22:01;;;;;;;7.20;6.50;;;;;;;25.68;73.85;98337.59;5060315;23;21174;-89
2023/09/15 09:24:05;;;;;;;8.00;7.20;;;;;;;25.59;72.43;98331.50;5063606;23;20579;-89
2023/09/15 09:26:12;;;;;;;7.50;6.80;;;;;;;25.55;72.36;98326.72;5088203;23;20572;-89
2023/09/15 09:28:16;;;;;;;7.33;6.67;;;;;;;25.47;72.51;98326.03;5114206;23;21097;-89
2023/09/15 09:30:23;;;;;;;8.13;7.33;;;;;;;25.47;73.11;98320.66;5113570;23;20684;-89
2023/09/15 09:32:26;;;;;;;7.97;7.17;;;;;;;25.57;76.09;98322.00;5086025;23;20608;-89
2023/09/15 09:34:30;;;;;;;6.73;6.13;;;;;;;25.75;73.77;98325.06;5064119;23;20618;-89
2023/09/15 09:36:50;;;;;;;6.83;6.13;;;;;;;25.86;74.82;98319.19;5087096;23;20923;-89
2023/09/15 09:38:52;;;;;;;7.03;6.33;;;;;;;25.97;74.04;98324.84;5088101;23;20646;-89
2023/09/15 09:40:56;;;;;;;7.20;6.50;;;;;;;26.09;75.21;98324.09;5088107;23;21106;-89
2023/09/15 09:42:59;;;;;;;7.47;6.40;;;;;;;26.18;73.07;98320.25;5064023;23;20628;-88